sensor_id;sensor_type;location;lat;lon;timestamp;P1;durP1;ratioP1;P2;durP2;ratioP2
18378;SDS011;27025;51.986;5.984;2023-03-08T00:00:17;10.43;;;8.20;;
18378;SDS011;27025;51.986;5.984;2023-03-08T00:02:44;11.73;;;8.37;;
18378;SDS011;27025;51.986;5.984;2023-03-08T00:05:10;12.17;;;7.87;;
18378;SDS011;27025;51.986;5.984;2023-03-08T00:07:36;15.67;;;8.73;;
18378;SDS011;27025;51.986;5.984;2023-03-08T00:10:03;11.13;;;9.03;;
18378;SDS011;27025;51.986;5.984;2023-03-08T00:12:29;12.80;;;9.10;;
18378;SDS011;27025;51.986;5.984;2023-03-08T00:14:55;11.63;;;9.37;;
18378;SDS011;27025;51.986;5.984;2023-03-08T00:17:24;12.77;;;9.10;;
18378;SDS011;27025;51.986;5.984;2023-03-08T00:19:50;9.47;;;8.47;;
18378;SDS011;27025;51.986;5.984;2023-03-08T00:22:17;12.20;;;9.70;;
18378;SDS011;27025;51.986;5.984;2023-03-08T00:24:45;13.23;;;9.53;;
18378;SDS011;27025;51.986;5.984;2023-03-08T00:27:11;14.60;;;10.10;;
18378;SDS011;27025;51.986;5.984;2023-03-08T00:29:37;12.60;;;9.70;;
18378;SDS011;27025;51.986;5.984;2023-03-08T00:32:03;12.87;;;10.43;;
18378;SDS011;27025;51.986;5.984;2023-03-08T00:34:32;14.57;;;11.23;;
18378;SDS011;27025;51.986;5.984;2023-03-08T00:36:58;14.57;;;11.40;;
18378;SDS011;27025;51.986;5.984;2023-03-08T00:39:24;18.70;;;13.30;;
18378;SDS011;27025;51.986;5.984;2023-03-08T00:41:53;17.03;;;14.30;;
18378;SDS011;27025;51.986;5.984;2023-03-08T00:44:19;21.60;;;15.07;;
18378;SDS011;27025;51.986;5.984;2023-03-08T00:46:45;22.17;;;16.30;;
18378;SDS011;27025;51.986;5.984;2023-03-08T00:49:11;26.90;;;19.90;;
18378;SDS011;27025;51.986;5.984;2023-03-08T00:51:40;27.70;;;20.20;;
18378;SDS011;27025;51.986;5.984;2023-03-08T00:54:06;27.87;;;19.63;;
18378;SDS011;27025;51.986;5.984;2023-03-08T00:56:32;26.30;;;19.33;;
18378;SDS011;27025;51.986;5.984;2023-03-08T00:58:58;26.80;;;20.73;;
18378;SDS011;27025;51.986;5.984;2023-03-08T01:01:24;28.60;;;23.23;;
18378;SDS011;27025;51.986;5.984;2023-03-08T01:03:53;29.07;;;22.20;;
18378;SDS011;27025;51.986;5.984;2023-03-08T01:06:19;30.63;;;23.20;;
18378;SDS011;27025;51.986;5.984;2023-03-08T01:08:47;30.57;;;22.73;;
18378;SDS011;27025;51.986;5.984;2023-03-08T01:11:14;27.73;;;22.57;;
18378;SDS011;27025;51.986;5.984;2023-03-08T01:13:40;28.40;;;23.63;;
18378;SDS011;27025;51.986;5.984;2023-03-08T01:16:18;31.80;;;23.30;;
18378;SDS011;27025;51.986;5.984;2023-03-08T01:18:47;30.93;;;23.10;;
18378;SDS011;27025;51.986;5.984;2023-03-08T01:21:13;31.70;;;23.80;;
18378;SDS011;27025;51.986;5.984;2023-03-08T01:23:39;32.03;;;23.63;;
18378;SDS011;27025;51.986;5.984;2023-03-08T01:26:12;31.90;;;23.83;;
18378;SDS011;27025;51.986;5.984;2023-03-08T01:28:41;33.60;;;23.50;;
18378;SDS011;27025;51.986;5.984;2023-03-08T01:31:12;30.03;;;23.07;;
18378;SDS011;27025;51.986;5.984;2023-03-08T01:33:41;28.47;;;21.57;;
18378;SDS011;27025;51.986;5.984;2023-03-08T01:36:08;28.90;;;21.40;;
18378;SDS011;27025;51.986;5.984;2023-03-08T01:38:35;28.73;;;21.23;;
18378;SDS011;27025;51.986;5.984;2023-03-08T01:41:05;26.40;;;19.77;;
18378;SDS011;27025;51.986;5.984;2023-03-08T01:43:32;23.13;;;19.33;;
18378;SDS011;27025;51.986;5.984;2023-03-08T01:48:40;27.10;;;22.20;;
18378;SDS011;27025;51.986;5.984;2023-03-08T01:51:08;30.90;;;24.10;;
18378;SDS011;27025;51.986;5.984;2023-03-08T01:53:38;31.10;;;24.80;;
18378;SDS011;27025;51.986;5.984;2023-03-08T01:56:06;28.90;;;23.73;;
18378;SDS011;27025;51.986;5.984;2023-03-08T01:58:38;29.73;;;23.83;;
18378;SDS011;27025;51.986;5.984;2023-03-08T02:01:04;33.83;;;26.33;;
18378;SDS011;27025;51.986;5.984;2023-03-08T02:03:34;33.47;;;25.43;;
18378;SDS011;27025;51.986;5.984;2023-03-08T02:06:00;35.07;;;26.83;;
18378;SDS011;27025;51.986;5.984;2023-03-08T02:08:28;34.93;;;28.03;;
18378;SDS011;27025;51.986;5.984;2023-03-08T02:10:54;34.97;;;27.53;;
18378;SDS011;27025;51.986;5.984;2023-03-08T02:13:24;37.13;;;27.47;;
18378;SDS011;27025;51.986;5.984;2023-03-08T02:15:50;35.77;;;27.93;;
18378;SDS011;27025;51.986;5.984;2023-03-08T02:18:19;38.97;;;29.33;;
18378;SDS011;27025;51.986;5.984;2023-03-08T02:20:45;36.83;;;28.13;;
18378;SDS011;27025;51.986;5.984;2023-03-08T02:25:41;45.10;;;30.63;;
18378;SDS011;27025;51.986;5.984;2023-03-08T02:28:12;50.37;;;30.83;;
18378;SDS011;27025;51.986;5.984;2023-03-08T02:30:41;49.63;;;31.40;;
18378;SDS011;27025;51.986;5.984;2023-03-08T02:33:07;53.13;;;32.27;;
18378;SDS011;27025;51.986;5.984;2023-03-08T02:35:34;51.53;;;32.33;;
18378;SDS011;27025;51.986;5.984;2023-03-08T02:38:02;71.77;;;31.80;;
18378;SDS011;27025;51.986;5.984;2023-03-08T02:40:28;108.30;;;33.07;;
18378;SDS011;27025;51.986;5.984;2023-03-08T02:42:54;59.70;;;31.43;;
18378;SDS011;27025;51.986;5.984;2023-03-08T02:45:21;89.30;;;32.13;;
18378;SDS011;27025;51.986;5.984;2023-03-08T02:47:49;134.23;;;34.00;;
18378;SDS011;27025;51.986;5.984;2023-03-08T02:50:15;169.33;;;34.60;;
18378;SDS011;27025;51.986;5.984;2023-03-08T02:52:41;160.47;;;34.10;;
18378;SDS011;27025;51.986;5.984;2023-03-08T02:55:10;237.03;;;32.50;;
18378;SDS011;27025;51.986;5.984;2023-03-08T02:57:36;443.17;;;38.60;;
18378;SDS011;27025;51.986;5.984;2023-03-08T03:00:02;259.00;;;33.00;;
18378;SDS011;27025;51.986;5.984;2023-03-08T03:02:30;221.23;;;34.77;;
18378;SDS011;27025;51.986;5.984;2023-03-08T03:04:56;133.20;;;31.70;;
18378;SDS011;27025;51.986;5.984;2023-03-08T03:07:22;221.87;;;33.13;;
18378;SDS011;27025;51.986;5.984;2023-03-08T03:09:48;294.63;;;37.30;;
18378;SDS011;27025;51.986;5.984;2023-03-08T03:12:17;287.20;;;34.23;;
18378;SDS011;27025;51.986;5.984;2023-03-08T03:14:43;245.00;;;33.97;;
18378;SDS011;27025;51.986;5.984;2023-03-08T03:17:12;208.03;;;33.57;;
18378;SDS011;27025;51.986;5.984;2023-03-08T03:19:41;191.13;;;31.77;;
18378;SDS011;27025;51.986;5.984;2023-03-08T03:22:07;191.10;;;33.37;;
18378;SDS011;27025;51.986;5.984;2023-03-08T03:24:33;226.63;;;33.47;;
18378;SDS011;27025;51.986;5.984;2023-03-08T03:27:01;136.07;;;31.47;;
18378;SDS011;27025;51.986;5.984;2023-03-08T03:29:28;104.80;;;34.20;;
18378;SDS011;27025;51.986;5.984;2023-03-08T03:31:54;107.80;;;34.70;;
18378;SDS011;27025;51.986;5.984;2023-03-08T03:34:20;98.73;;;34.73;;
18378;SDS011;27025;51.986;5.984;2023-03-08T03:36:46;122.50;;;35.60;;
18378;SDS011;27025;51.986;5.984;2023-03-08T03:39:12;86.90;;;33.63;;
18378;SDS011;27025;51.986;5.984;2023-03-08T03:41:38;93.83;;;36.23;;
18378;SDS011;27025;51.986;5.984;2023-03-08T03:44:04;77.90;;;34.73;;
18378;SDS011;27025;51.986;5.984;2023-03-08T03:46:32;84.57;;;36.83;;
18378;SDS011;27025;51.986;5.984;2023-03-08T03:48:58;137.10;;;39.37;;
18378;SDS011;27025;51.986;5.984;2023-03-08T03:51:24;90.20;;;40.73;;
18378;SDS011;27025;51.986;5.984;2023-03-08T03:53:50;136.73;;;43.40;;
18378;SDS011;27025;51.986;5.984;2023-03-08T03:56:23;112.83;;;42.57;;
18378;SDS011;27025;51.986;5.984;2023-03-08T03:58:50;95.00;;;42.47;;
18378;SDS011;27025;51.986;5.984;2023-03-08T04:01:20;182.40;;;48.13;;
18378;SDS011;27025;51.986;5.984;2023-03-08T04:03:47;333.83;;;52.67;;
18378;SDS011;27025;51.986;5.984;2023-03-08T04:08:42;191.77;;;48.53;;
18378;SDS011;27025;51.986;5.984;2023-03-08T04:11:09;152.03;;;50.60;;
18378;SDS011;27025;51.986;5.984;2023-03-08T04:13:35;305.10;;;52.70;;
18378;SDS011;27025;51.986;5.984;2023-03-08T04:16:11;132.27;;;48.20;;
18378;SDS011;27025;51.986;5.984;2023-03-08T04:18:38;126.37;;;49.00;;
18378;SDS011;27025;51.986;5.984;2023-03-08T04:21:04;161.37;;;47.83;;
18378;SDS011;27025;51.986;5.984;2023-03-08T04:23:30;247.20;;;53.43;;
18378;SDS011;27025;51.986;5.984;2023-03-08T04:25:57;329.03;;;51.13;;
18378;SDS011;27025;51.986;5.984;2023-03-08T04:28:23;253.00;;;52.33;;
18378;SDS011;27025;51.986;5.984;2023-03-08T04:30:49;236.23;;;49.93;;
18378;SDS011;27025;51.986;5.984;2023-03-08T04:33:15;151.67;;;50.17;;
18378;SDS011;27025;51.986;5.984;2023-03-08T04:35:41;160.33;;;50.53;;
18378;SDS011;27025;51.986;5.984;2023-03-08T04:38:07;205.23;;;51.83;;
18378;SDS011;27025;51.986;5.984;2023-03-08T04:40:33;265.17;;;55.30;;
18378;SDS011;27025;51.986;5.984;2023-03-08T04:43:19;130.10;;;49.70;;
18378;SDS011;27025;51.986;5.984;2023-03-08T04:45:45;155.40;;;48.50;;
18378;SDS011;27025;51.986;5.984;2023-03-08T04:48:11;124.43;;;48.80;;
18378;SDS011;27025;51.986;5.984;2023-03-08T04:50:37;121.27;;;48.93;;
18378;SDS011;27025;51.986;5.984;2023-03-08T04:53:03;114.47;;;49.03;;
18378;SDS011;27025;51.986;5.984;2023-03-08T04:55:32;112.77;;;47.77;;
18378;SDS011;27025;51.986;5.984;2023-03-08T04:57:58;117.97;;;49.37;;
18378;SDS011;27025;51.986;5.984;2023-03-08T05:00:24;125.80;;;50.00;;
18378;SDS011;27025;51.986;5.984;2023-03-08T05:02:51;140.53;;;53.50;;
18378;SDS011;27025;51.986;5.984;2023-03-08T05:05:17;134.27;;;52.00;;
18378;SDS011;27025;51.986;5.984;2023-03-08T05:07:43;135.77;;;52.57;;
18378;SDS011;27025;51.986;5.984;2023-03-08T05:10:09;144.13;;;52.30;;
18378;SDS011;27025;51.986;5.984;2023-03-08T05:12:38;145.53;;;54.33;;
18378;SDS011;27025;51.986;5.984;2023-03-08T05:15:04;133.73;;;51.40;;
18378;SDS011;27025;51.986;5.984;2023-03-08T05:17:30;112.40;;;52.27;;
18378;SDS011;27025;51.986;5.984;2023-03-08T05:19:56;147.87;;;54.80;;
18378;SDS011;27025;51.986;5.984;2023-03-08T05:22:24;144.90;;;51.40;;
18378;SDS011;27025;51.986;5.984;2023-03-08T05:24:50;171.63;;;52.57;;
18378;SDS011;27025;51.986;5.984;2023-03-08T05:27:16;198.30;;;50.40;;
18378;SDS011;27025;51.986;5.984;2023-03-08T05:29:45;194.47;;;52.50;;
18378;SDS011;27025;51.986;5.984;2023-03-08T05:32:11;186.90;;;52.23;;
18378;SDS011;27025;51.986;5.984;2023-03-08T05:34:37;239.30;;;52.07;;
18378;SDS011;27025;51.986;5.984;2023-03-08T05:37:03;179.47;;;50.47;;
18378;SDS011;27025;51.986;5.984;2023-03-08T05:39:32;232.33;;;50.53;;
18378;SDS011;27025;51.986;5.984;2023-03-08T05:41:58;267.27;;;52.77;;
18378;SDS011;27025;51.986;5.984;2023-03-08T05:44:24;128.90;;;49.67;;
18378;SDS011;27025;51.986;5.984;2023-03-08T05:46:53;194.30;;;54.17;;
18378;SDS011;27025;51.986;5.984;2023-03-08T05:49:19;367.87;;;60.53;;
18378;SDS011;27025;51.986;5.984;2023-03-08T05:51:45;297.00;;;58.57;;
18378;SDS011;27025;51.986;5.984;2023-03-08T05:54:11;244.87;;;58.70;;
18378;SDS011;27025;51.986;5.984;2023-03-08T05:56:39;163.17;;;55.33;;
18378;SDS011;27025;51.986;5.984;2023-03-08T05:59:05;255.80;;;55.80;;
18378;SDS011;27025;51.986;5.984;2023-03-08T06:01:31;166.43;;;53.90;;
18378;SDS011;27025;51.986;5.984;2023-03-08T06:03:58;324.20;;;60.03;;
18378;SDS011;27025;51.986;5.984;2023-03-08T06:06:26;297.83;;;55.67;;
18378;SDS011;27025;51.986;5.984;2023-03-08T06:08:52;309.67;;;57.30;;
18378;SDS011;27025;51.986;5.984;2023-03-08T06:11:20;275.17;;;52.50;;
18378;SDS011;27025;51.986;5.984;2023-03-08T06:13:46;198.10;;;51.33;;
18378;SDS011;27025;51.986;5.984;2023-03-08T06:16:12;288.80;;;81.13;;
18378;SDS011;27025;51.986;5.984;2023-03-08T06:18:39;204.87;;;53.10;;
18378;SDS011;27025;51.986;5.984;2023-03-08T06:23:32;166.40;;;47.77;;
18378;SDS011;27025;51.986;5.984;2023-03-08T06:25:59;221.80;;;49.20;;
18378;SDS011;27025;51.986;5.984;2023-03-08T06:28:25;226.63;;;46.80;;
18378;SDS011;27025;51.986;5.984;2023-03-08T06:30:52;195.43;;;48.77;;
18378;SDS011;27025;51.986;5.984;2023-03-08T06:33:22;194.70;;;46.40;;
18378;SDS011;27025;51.986;5.984;2023-03-08T06:36:07;107.50;;;43.33;;
18378;SDS011;27025;51.986;5.984;2023-03-08T06:38:35;99.77;;;43.03;;
18378;SDS011;27025;51.986;5.984;2023-03-08T06:41:02;96.60;;;41.43;;
18378;SDS011;27025;51.986;5.984;2023-03-08T06:43:31;89.60;;;41.50;;
18378;SDS011;27025;51.986;5.984;2023-03-08T06:45:57;116.37;;;42.00;;
18378;SDS011;27025;51.986;5.984;2023-03-08T06:51:34;150.07;;;44.67;;
18378;SDS011;27025;51.986;5.984;2023-03-08T06:54:17;148.33;;;45.33;;
18378;SDS011;27025;51.986;5.984;2023-03-08T06:56:44;141.67;;;46.27;;
18378;SDS011;27025;51.986;5.984;2023-03-08T06:59:18;120.07;;;45.27;;
18378;SDS011;27025;51.986;5.984;2023-03-08T07:01:51;129.50;;;45.50;;
18378;SDS011;27025;51.986;5.984;2023-03-08T07:04:29;207.93;;;48.77;;
18378;SDS011;27025;51.986;5.984;2023-03-08T07:06:58;127.30;;;46.37;;
18378;SDS011;27025;51.986;5.984;2023-03-08T07:09:24;142.07;;;47.73;;
18378;SDS011;27025;51.986;5.984;2023-03-08T07:14:50;138.10;;;47.20;;
18378;SDS011;27025;51.986;5.984;2023-03-08T07:17:28;114.40;;;46.53;;
18378;SDS011;27025;51.986;5.984;2023-03-08T07:20:04;139.23;;;48.77;;
18378;SDS011;27025;51.986;5.984;2023-03-08T07:22:42;122.07;;;47.13;;
18378;SDS011;27025;51.986;5.984;2023-03-08T07:25:31;123.07;;;50.03;;
18378;SDS011;27025;51.986;5.984;2023-03-08T07:31:08;126.87;;;49.67;;
18378;SDS011;27025;51.986;5.984;2023-03-08T07:33:35;117.03;;;49.40;;
18378;SDS011;27025;51.986;5.984;2023-03-08T07:36:02;121.93;;;49.27;;
18378;SDS011;27025;51.986;5.984;2023-03-08T07:38:39;120.30;;;50.07;;
18378;SDS011;27025;51.986;5.984;2023-03-08T07:41:08;125.70;;;49.63;;
18378;SDS011;27025;51.986;5.984;2023-03-08T07:43:34;117.83;;;49.93;;
18378;SDS011;27025;51.986;5.984;2023-03-08T07:46:03;128.33;;;51.27;;
18378;SDS011;27025;51.986;5.984;2023-03-08T07:48:29;123.80;;;51.97;;
18378;SDS011;27025;51.986;5.984;2023-03-08T07:51:03;133.30;;;50.90;;
18378;SDS011;27025;51.986;5.984;2023-03-08T07:53:31;120.87;;;49.87;;
18378;SDS011;27025;51.986;5.984;2023-03-08T07:56:00;138.30;;;51.40;;
18378;SDS011;27025;51.986;5.984;2023-03-08T07:58:27;119.07;;;50.33;;
18378;SDS011;27025;51.986;5.984;2023-03-08T08:01:00;122.97;;;51.30;;
18378;SDS011;27025;51.986;5.984;2023-03-08T08:03:27;124.40;;;49.53;;
18378;SDS011;27025;51.986;5.984;2023-03-08T08:06:01;108.20;;;49.10;;
18378;SDS011;27025;51.986;5.984;2023-03-08T08:08:28;118.17;;;49.13;;
18378;SDS011;27025;51.986;5.984;2023-03-08T08:10:56;117.27;;;48.97;;
18378;SDS011;27025;51.986;5.984;2023-03-08T08:13:23;123.27;;;50.47;;
18378;SDS011;27025;51.986;5.984;2023-03-08T08:15:58;120.53;;;49.67;;
18378;SDS011;27025;51.986;5.984;2023-03-08T08:18:24;113.77;;;50.20;;
18378;SDS011;27025;51.986;5.984;2023-03-08T08:20:57;112.37;;;48.07;;
18378;SDS011;27025;51.986;5.984;2023-03-08T08:26:14;112.20;;;47.70;;
18378;SDS011;27025;51.986;5.984;2023-03-08T08:28:45;110.00;;;48.87;;
18378;SDS011;27025;51.986;5.984;2023-03-08T08:31:13;106.60;;;49.27;;
18378;SDS011;27025;51.986;5.984;2023-03-08T08:33:41;111.93;;;50.10;;
18378;SDS011;27025;51.986;5.984;2023-03-08T08:36:08;111.07;;;50.77;;
18378;SDS011;27025;51.986;5.984;2023-03-08T08:38:38;111.23;;;50.40;;
18378;SDS011;27025;51.986;5.984;2023-03-08T08:41:10;107.73;;;49.87;;
18378;SDS011;27025;51.986;5.984;2023-03-08T08:43:43;96.60;;;46.90;;
18378;SDS011;27025;51.986;5.984;2023-03-08T08:46:12;97.43;;;47.30;;
18378;SDS011;27025;51.986;5.984;2023-03-08T08:48:41;58.72;;;36.10;;
18378;SDS011;27025;51.986;5.984;2023-03-08T08:51:08;70.73;;;36.60;;
18378;SDS011;27025;51.986;5.984;2023-03-08T08:53:37;52.17;;;32.37;;
18378;SDS011;27025;51.986;5.984;2023-03-08T08:58:36;57.80;;;33.57;;
18378;SDS011;27025;51.986;5.984;2023-03-08T09:01:11;52.63;;;30.87;;
18378;SDS011;27025;51.986;5.984;2023-03-08T09:03:40;45.13;;;26.50;;
18378;SDS011;27025;51.986;5.984;2023-03-08T09:06:06;40.13;;;24.03;;
18378;SDS011;27025;51.986;5.984;2023-03-08T09:08:38;38.43;;;23.33;;
18378;SDS011;27025;51.986;5.984;2023-03-08T09:11:05;35.53;;;22.20;;
18378;SDS011;27025;51.986;5.984;2023-03-08T09:13:32;31.63;;;21.00;;
18378;SDS011;27025;51.986;5.984;2023-03-08T09:16:06;35.33;;;23.07;;
18378;SDS011;27025;51.986;5.984;2023-03-08T09:18:35;34.57;;;21.93;;
18378;SDS011;27025;51.986;5.984;2023-03-08T09:21:04;37.37;;;24.20;;
18378;SDS011;27025;51.986;5.984;2023-03-08T09:23:52;34.57;;;22.57;;
18378;SDS011;27025;51.986;5.984;2023-03-08T09:26:21;39.00;;;24.20;;
18378;SDS011;27025;51.986;5.984;2023-03-08T09:28:51;38.23;;;22.70;;
18378;SDS011;27025;51.986;5.984;2023-03-08T09:31:20;32.40;;;21.83;;
18378;SDS011;27025;51.986;5.984;2023-03-08T09:33:50;31.43;;;20.90;;
18378;SDS011;27025;51.986;5.984;2023-03-08T09:36:16;32.53;;;22.03;;
18378;SDS011;27025;51.986;5.984;2023-03-08T09:38:46;30.93;;;20.67;;
18378;SDS011;27025;51.986;5.984;2023-03-08T09:41:26;28.30;;;20.03;;
18378;SDS011;27025;51.986;5.984;2023-03-08T09:46:47;30.23;;;20.93;;
18378;SDS011;27025;51.986;5.984;2023-03-08T09:49:22;26.37;;;20.27;;
18378;SDS011;27025;51.986;5.984;2023-03-08T09:52:05;29.63;;;20.97;;
18378;SDS011;27025;51.986;5.984;2023-03-08T09:54:40;26.83;;;21.07;;
18378;SDS011;27025;51.986;5.984;2023-03-08T09:57:17;29.83;;;20.50;;
18378;SDS011;27025;51.986;5.984;2023-03-08T10:00:00;25.83;;;18.63;;
18378;SDS011;27025;51.986;5.984;2023-03-08T10:05:52;24.52;;;21.52;;
18378;SDS011;27025;51.986;5.984;2023-03-08T10:08:25;23.63;;;18.30;;
18378;SDS011;27025;51.986;5.984;2023-03-08T10:14:18;22.93;;;17.50;;
18378;SDS011;27025;51.986;5.984;2023-03-08T10:16:47;21.83;;;16.73;;
18378;SDS011;27025;51.986;5.984;2023-03-08T10:19:29;20.03;;;15.93;;
18378;SDS011;27025;51.986;5.984;2023-03-08T10:22:01;21.17;;;15.70;;
18378;SDS011;27025;51.986;5.984;2023-03-08T10:24:30;24.23;;;17.40;;
18378;SDS011;27025;51.986;5.984;2023-03-08T10:27:19;26.27;;;18.03;;
18378;SDS011;27025;51.986;5.984;2023-03-08T10:29:49;22.10;;;17.63;;
18378;SDS011;27025;51.986;5.984;2023-03-08T10:32:16;24.53;;;18.23;;
18378;SDS011;27025;51.986;5.984;2023-03-08T10:34:42;23.57;;;16.60;;
18378;SDS011;27025;51.986;5.984;2023-03-08T10:37:11;24.60;;;17.03;;
18378;SDS011;27025;51.986;5.984;2023-03-08T10:39:52;20.73;;;16.10;;
18378;SDS011;27025;51.986;5.984;2023-03-08T10:42:28;19.67;;;15.63;;
18378;SDS011;27025;51.986;5.984;2023-03-08T10:45:09;21.73;;;16.50;;
18378;SDS011;27025;51.986;5.984;2023-03-08T10:50:35;18.70;;;12.73;;
18378;SDS011;27025;51.986;5.984;2023-03-08T10:53:31;14.20;;;11.93;;
18378;SDS011;27025;51.986;5.984;2023-03-08T10:56:00;15.17;;;12.77;;
18378;SDS011;27025;51.986;5.984;2023-03-08T11:06:32;19.37;;;14.37;;
18378;SDS011;27025;51.986;5.984;2023-03-08T11:09:17;18.33;;;14.10;;
18378;SDS011;27025;51.986;5.984;2023-03-08T11:11:56;20.53;;;15.00;;
18378;SDS011;27025;51.986;5.984;2023-03-08T11:14:23;21.63;;;14.57;;
18378;SDS011;27025;51.986;5.984;2023-03-08T11:19:29;23.27;;;15.63;;
18378;SDS011;27025;51.986;5.984;2023-03-08T11:57:16;20.70;;;14.77;;
18378;SDS011;27025;51.986;5.984;2023-03-08T12:02:17;20.17;;;16.40;;
18378;SDS011;27025;51.986;5.984;2023-03-08T12:04:49;22.10;;;16.20;;
18378;SDS011;27025;51.986;5.984;2023-03-08T12:07:19;20.33;;;15.83;;
18378;SDS011;27025;51.986;5.984;2023-03-08T12:09:52;19.97;;;16.40;;
18378;SDS011;27025;51.986;5.984;2023-03-08T12:14:50;21.80;;;16.73;;
18378;SDS011;27025;51.986;5.984;2023-03-08T12:17:24;19.57;;;15.93;;
18378;SDS011;27025;51.986;5.984;2023-03-08T12:19:52;17.97;;;14.10;;
18378;SDS011;27025;51.986;5.984;2023-03-08T12:22:30;18.10;;;14.07;;
18378;SDS011;27025;51.986;5.984;2023-03-08T12:27:46;16.60;;;13.50;;
18378;SDS011;27025;51.986;5.984;2023-03-08T12:33:00;18.33;;;13.20;;
18378;SDS011;27025;51.986;5.984;2023-03-08T12:35:30;17.40;;;13.33;;
18378;SDS011;27025;51.986;5.984;2023-03-08T12:38:01;19.43;;;13.23;;
18378;SDS011;27025;51.986;5.984;2023-03-08T12:40:44;15.13;;;12.30;;
18378;SDS011;27025;51.986;5.984;2023-03-08T12:45:47;14.93;;;12.13;;
18378;SDS011;27025;51.986;5.984;2023-03-08T12:48:35;14.07;;;11.90;;
18378;SDS011;27025;51.986;5.984;2023-03-08T12:51:06;16.27;;;11.97;;
18378;SDS011;27025;51.986;5.984;2023-03-08T12:53:45;15.13;;;11.87;;
18378;SDS011;27025;51.986;5.984;2023-03-08T12:56:23;12.10;;;9.97;;
18378;SDS011;27025;51.986;5.984;2023-03-08T12:58:51;12.53;;;10.50;;
18378;SDS011;27025;51.986;5.984;2023-03-08T13:01:40;11.47;;;9.97;;
18378;SDS011;27025;51.986;5.984;2023-03-08T13:12:16;12.43;;;9.10;;
18378;SDS011;27025;51.986;5.984;2023-03-08T13:17:38;11.10;;;8.70;;
18378;SDS011;27025;51.986;5.984;2023-03-08T13:22:46;12.53;;;8.83;;
18378;SDS011;27025;51.986;5.984;2023-03-08T13:32:57;8.47;;;7.47;;
18378;SDS011;27025;51.986;5.984;2023-03-08T13:35:26;8.70;;;7.03;;
18378;SDS011;27025;51.986;5.984;2023-03-08T13:37:57;10.70;;;7.50;;
18378;SDS011;27025;51.986;5.984;2023-03-08T13:40:27;8.93;;;7.80;;
18378;SDS011;27025;51.986;5.984;2023-03-08T13:46:03;8.20;;;7.33;;
18378;SDS011;27025;51.986;5.984;2023-03-08T13:51:20;8.27;;;6.80;;
18378;SDS011;27025;51.986;5.984;2023-03-08T13:53:47;8.07;;;7.27;;
18378;SDS011;27025;51.986;5.984;2023-03-08T13:56:19;8.17;;;7.33;;
18378;SDS011;27025;51.986;5.984;2023-03-08T13:58:47;8.87;;;7.97;;
18378;SDS011;27025;51.986;5.984;2023-03-08T14:01:17;8.83;;;7.93;;
18378;SDS011;27025;51.986;5.984;2023-03-08T14:03:47;9.83;;;8.00;;
18378;SDS011;27025;51.986;5.984;2023-03-08T14:06:34;8.50;;;7.57;;
18378;SDS011;27025;51.986;5.984;2023-03-08T14:09:02;9.47;;;7.77;;
18378;SDS011;27025;51.986;5.984;2023-03-08T14:11:32;8.70;;;7.80;;
18378;SDS011;27025;51.986;5.984;2023-03-08T14:13:59;8.70;;;7.90;;
18378;SDS011;27025;51.986;5.984;2023-03-08T14:16:31;8.23;;;7.43;;
18378;SDS011;27025;51.986;5.984;2023-03-08T14:18:58;9.60;;;8.33;;
18378;SDS011;27025;51.986;5.984;2023-03-08T14:21:33;8.57;;;7.67;;
18378;SDS011;27025;51.986;5.984;2023-03-08T14:24:03;9.13;;;8.13;;
18378;SDS011;27025;51.986;5.984;2023-03-08T14:26:38;8.83;;;8.00;;
18378;SDS011;27025;51.986;5.984;2023-03-08T14:31:50;8.90;;;7.97;;
18378;SDS011;27025;51.986;5.984;2023-03-08T14:34:18;8.47;;;7.70;;
18378;SDS011;27025;51.986;5.984;2023-03-08T14:39:38;9.80;;;8.30;;
18378;SDS011;27025;51.986;5.984;2023-03-08T14:44:57;9.40;;;8.50;;
18378;SDS011;27025;51.986;5.984;2023-03-08T14:47:29;9.07;;;7.80;;
18378;SDS011;27025;51.986;5.984;2023-03-08T14:52:33;8.97;;;8.07;;
18378;SDS011;27025;51.986;5.984;2023-03-08T14:55:00;10.03;;;8.73;;
18378;SDS011;27025;51.986;5.984;2023-03-08T14:57:27;9.80;;;8.80;;
18378;SDS011;27025;51.986;5.984;2023-03-08T15:00:13;10.97;;;8.40;;
18378;SDS011;27025;51.986;5.984;2023-03-08T15:02:48;10.10;;;8.93;;
18378;SDS011;27025;51.986;5.984;2023-03-08T15:05:18;10.40;;;8.80;;
18378;SDS011;27025;51.986;5.984;2023-03-08T15:08:05;9.27;;;8.17;;
18378;SDS011;27025;51.986;5.984;2023-03-08T15:10:40;9.43;;;8.43;;
18378;SDS011;27025;51.986;5.984;2023-03-08T15:13:23;9.50;;;8.60;;
18378;SDS011;27025;51.986;5.984;2023-03-08T15:15:51;10.30;;;8.17;;
18378;SDS011;27025;51.986;5.984;2023-03-08T15:18:17;9.43;;;8.30;;
18378;SDS011;27025;51.986;5.984;2023-03-08T15:20:45;10.53;;;8.97;;
18378;SDS011;27025;51.986;5.984;2023-03-08T15:23:16;10.73;;;8.37;;
18378;SDS011;27025;51.986;5.984;2023-03-08T15:25:43;12.37;;;9.60;;
18378;SDS011;27025;51.986;5.984;2023-03-08T15:28:13;9.70;;;8.70;;
18378;SDS011;27025;51.986;5.984;2023-03-08T15:30:39;9.97;;;8.97;;
18378;SDS011;27025;51.986;5.984;2023-03-08T15:33:05;9.73;;;8.73;;
18378;SDS011;27025;51.986;5.984;2023-03-08T15:35:31;10.13;;;8.87;;
18378;SDS011;27025;51.986;5.984;2023-03-08T15:37:57;10.27;;;8.63;;
18378;SDS011;27025;51.986;5.984;2023-03-08T15:40:25;10.10;;;8.40;;
18378;SDS011;27025;51.986;5.984;2023-03-08T15:42:51;11.20;;;9.80;;
18378;SDS011;27025;51.986;5.984;2023-03-08T15:45:18;10.30;;;9.20;;
18378;SDS011;27025;51.986;5.984;2023-03-08T15:47:54;11.73;;;9.23;;
18378;SDS011;27025;51.986;5.984;2023-03-08T15:50:20;10.53;;;9.40;;
18378;SDS011;27025;51.986;5.984;2023-03-08T15:52:46;10.63;;;9.00;;
18378;SDS011;27025;51.986;5.984;2023-03-08T15:55:13;11.40;;;9.50;;
18378;SDS011;27025;51.986;5.984;2023-03-08T15:57:42;12.10;;;9.67;;
18378;SDS011;27025;51.986;5.984;2023-03-08T16:00:09;12.73;;;10.30;;
18378;SDS011;27025;51.986;5.984;2023-03-08T16:02:39;10.80;;;9.70;;
18378;SDS011;27025;51.986;5.984;2023-03-08T16:05:05;12.27;;;9.40;;
18378;SDS011;27025;51.986;5.984;2023-03-08T16:07:32;11.83;;;9.97;;
18378;SDS011;27025;51.986;5.984;2023-03-08T16:09:58;11.20;;;9.87;;
18378;SDS011;27025;51.986;5.984;2023-03-08T16:12:24;13.13;;;9.50;;
18378;SDS011;27025;51.986;5.984;2023-03-08T16:14:50;12.80;;;10.07;;
18378;SDS011;27025;51.986;5.984;2023-03-08T16:17:19;12.93;;;10.30;;
18378;SDS011;27025;51.986;5.984;2023-03-08T16:19:45;12.60;;;10.40;;
18378;SDS011;27025;51.986;5.984;2023-03-08T16:22:11;12.27;;;10.83;;
18378;SDS011;27025;51.986;5.984;2023-03-08T16:24:37;12.23;;;10.47;;
18378;SDS011;27025;51.986;5.984;2023-03-08T16:27:03;13.13;;;11.13;;
18378;SDS011;27025;51.986;5.984;2023-03-08T16:29:30;13.73;;;11.03;;
18378;SDS011;27025;51.986;5.984;2023-03-08T16:31:56;14.30;;;11.73;;
18378;SDS011;27025;51.986;5.984;2023-03-08T16:34:23;12.90;;;11.47;;
18378;SDS011;27025;51.986;5.984;2023-03-08T16:36:49;12.23;;;10.93;;
18378;SDS011;27025;51.986;5.984;2023-03-08T16:39:18;12.30;;;10.60;;
18378;SDS011;27025;51.986;5.984;2023-03-08T16:41:44;12.10;;;10.60;;
18378;SDS011;27025;51.986;5.984;2023-03-08T16:44:17;13.40;;;11.87;;
18378;SDS011;27025;51.986;5.984;2023-03-08T16:46:44;13.10;;;11.57;;